createdAt,value
2018-09-06T00:02:04.007Z,10.70
2018-09-06T00:04:32.959Z,9.33
2018-09-06T00:07:01.891Z,8.47
2018-09-06T00:09:30.547Z,9.20
2018-09-06T00:11:59.223Z,9.30
2018-09-06T00:14:27.599Z,8.70
2018-09-06T00:16:56.347Z,10.40
2018-09-06T00:19:24.718Z,9.03
2018-09-06T00:21:53.350Z,8.47
2018-09-06T00:24:22.035Z,9.50
2018-09-06T00:26:50.643Z,8.63
2018-09-06T00:29:19.023Z,8.47
2018-09-06T00:31:47.419Z,9.00
2018-09-06T00:34:16.487Z,9.00
2018-09-06T00:36:45.976Z,9.97
2018-09-06T00:39:14.375Z,9.40
2018-09-06T00:41:42.835Z,9.37
2018-09-06T00:44:11.527Z,8.60
2018-09-06T00:46:41.244Z,8.63
2018-09-06T00:49:09.657Z,8.00
2018-09-06T00:51:38.018Z,10.10
2018-09-06T00:54:06.803Z,9.20
2018-09-06T00:56:35.250Z,8.67
2018-09-06T00:59:03.719Z,8.97
2018-09-06T01:01:32.550Z,10.50
2018-09-06T01:04:01.367Z,9.60
2018-09-06T01:06:30.358Z,9.17
2018-09-06T01:08:58.731Z,9.80
2018-09-06T01:11:27.143Z,10.40
2018-09-06T01:13:56.082Z,8.50
2018-09-06T01:16:24.786Z,11.37
2018-09-06T01:18:53.162Z,9.07
2018-09-06T01:21:21.550Z,10.77
2018-09-06T01:23:50.596Z,9.90
2018-09-06T01:26:18.975Z,8.30
2018-09-06T01:28:47.132Z,10.03
2018-09-06T01:31:15.530Z,10.30
2018-09-06T01:33:43.911Z,10.67
2018-09-06T01:36:17.602Z,10.47
2018-09-06T01:38:45.950Z,7.33
2018-09-06T01:41:14.686Z,9.37
2018-09-06T01:43:43.395Z,8.40
2018-09-06T01:46:12.024Z,8.90
2018-09-06T01:48:40.418Z,10.43
2018-09-06T01:51:08.796Z,10.20
2018-09-06T01:53:38.091Z,9.53
2018-09-06T01:56:06.145Z,8.97
2018-09-06T01:58:34.549Z,9.90
2018-09-06T02:01:02.709Z,9.50
2018-09-06T02:03:31.225Z,9.60
2018-09-06T02:05:59.599Z,8.80
2018-09-06T02:08:27.966Z,8.60
2018-09-06T02:10:56.875Z,9.47
2018-09-06T02:13:24.946Z,10.90
2018-09-06T02:15:54.079Z,9.50
2018-09-06T02:18:22.690Z,9.40
2018-09-06T02:20:51.385Z,7.93
2018-09-06T02:23:19.889Z,9.80
2018-09-06T02:25:48.337Z,8.37
2018-09-06T02:28:16.711Z,10.23
2018-09-06T02:30:45.105Z,8.80
2018-09-06T02:33:14.461Z,9.37
2018-09-06T02:35:42.839Z,7.97
2018-09-06T02:38:12.271Z,9.00
2018-09-06T02:40:41.166Z,10.90
2018-09-06T02:43:11.746Z,8.10
2018-09-06T02:45:41.213Z,10.00
2018-09-06T02:48:10.295Z,8.63
2018-09-06T02:50:43.941Z,9.90
2018-09-06T02:53:13.042Z,8.33
2018-09-06T02:55:41.639Z,11.57
2018-09-06T02:58:11.924Z,8.67
2018-09-06T03:00:41.563Z,10.87
2018-09-06T03:03:09.930Z,9.60
2018-09-06T03:05:38.315Z,9.87
2018-09-06T03:08:06.690Z,9.30
2018-09-06T03:10:42.017Z,10.77
2018-09-06T03:13:10.402Z,10.17
2018-09-06T03:15:39.225Z,9.07
2018-09-06T03:18:07.303Z,11.70
2018-09-06T03:20:36.390Z,10.33
2018-09-06T03:23:05.542Z,9.43
2018-09-06T03:25:34.631Z,10.03
2018-09-06T03:28:03.804Z,9.60
2018-09-06T03:30:32.113Z,9.80
2018-09-06T03:33:00.210Z,9.87
2018-09-06T03:35:28.538Z,9.33
2018-09-06T03:37:57.492Z,10.50
2018-09-06T03:40:26.263Z,9.93
2018-09-06T03:42:55.202Z,9.23
2018-09-06T03:45:23.886Z,9.10
2018-09-06T03:47:52.193Z,8.57
2018-09-06T03:50:20.586Z,10.97
2018-09-06T03:52:48.937Z,9.40
2018-09-06T03:55:18.257Z,9.23
2018-09-06T03:57:46.873Z,8.30
2018-09-06T04:00:15.066Z,9.67
2018-09-06T04:02:43.433Z,10.00
2018-09-06T04:05:11.702Z,11.47
2018-09-06T04:07:39.858Z,11.20
2018-09-06T04:10:07.974Z,9.53
2018-09-06T04:12:37.007Z,11.07
2018-09-06T04:15:06.693Z,11.73
2018-09-06T04:17:35.668Z,9.30
2018-09-06T04:20:04.640Z,10.13
2018-09-06T04:22:33.450Z,10.70
2018-09-06T04:25:03.318Z,8.90
2018-09-06T04:27:32.306Z,10.03
2018-09-06T04:30:00.878Z,10.00
2018-09-06T04:32:30.438Z,8.33
2018-09-06T04:34:59.751Z,10.27
2018-09-06T04:37:29.150Z,9.07
2018-09-06T04:39:57.753Z,8.60
2018-09-06T04:42:26.747Z,9.37
2018-09-06T04:44:56.423Z,8.67
2018-09-06T04:47:25.671Z,9.30
2018-09-06T04:49:54.359Z,9.53
2018-09-06T04:52:23.730Z,9.67
2018-09-06T04:54:51.845Z,11.87
2018-09-06T04:57:20.189Z,9.63
2018-09-06T04:59:48.566Z,10.50
2018-09-06T05:02:17.235Z,8.87
2018-09-06T05:04:45.967Z,10.97
2018-09-06T05:07:14.331Z,10.40
2018-09-06T05:09:43.226Z,10.57
2018-09-06T05:12:11.599Z,8.63
2018-09-06T05:14:39.930Z,9.30
2018-09-06T05:17:08.568Z,10.30
2018-09-06T05:19:36.650Z,8.67
2018-09-06T05:22:04.808Z,9.83
2018-09-06T05:24:33.357Z,10.33
2018-09-06T05:27:01.742Z,9.97
2018-09-06T05:29:30.107Z,8.20
2018-09-06T05:31:58.506Z,9.37
2018-09-06T05:34:26.939Z,9.90
2018-09-06T05:36:55.574Z,10.53
2018-09-06T05:39:23.963Z,9.27
2018-09-06T05:41:52.658Z,10.93
2018-09-06T05:44:21.029Z,11.00
2018-09-06T05:46:49.434Z,10.20
2018-09-06T05:49:18.111Z,9.37
2018-09-06T05:51:46.474Z,12.20
2018-09-06T05:54:15.136Z,9.63
2018-09-06T05:56:43.753Z,10.97
2018-09-06T05:59:12.439Z,9.67
2018-09-06T06:01:41.143Z,9.80
2018-09-06T06:04:09.531Z,9.93
2018-09-06T06:06:38.134Z,10.00
2018-09-06T06:09:08.127Z,10.40
2018-09-06T06:11:36.831Z,9.70
2018-09-06T06:14:05.578Z,10.20
2018-09-06T06:16:34.243Z,11.73
2018-09-06T06:19:02.594Z,9.77
2018-09-06T06:21:31.073Z,9.33
2018-09-06T06:23:59.454Z,10.20
2018-09-06T06:26:28.686Z,10.83
2018-09-06T06:28:57.066Z,11.60
2018-09-06T06:31:25.723Z,9.47
2018-09-06T06:33:54.114Z,9.67
2018-09-06T06:36:22.970Z,9.80
2018-09-06T06:38:51.342Z,11.30
2018-09-06T06:41:20.658Z,9.73
2018-09-06T06:43:48.741Z,9.30
2018-09-06T06:46:16.838Z,9.03
2018-09-06T06:48:44.933Z,11.30
2018-09-06T06:51:13.302Z,10.50
2018-09-06T06:53:41.926Z,11.03
2018-09-06T06:56:10.306Z,10.40
2018-09-06T06:58:38.761Z,10.20
2018-09-06T07:01:07.082Z,10.07
2018-09-06T07:03:35.435Z,10.33
2018-09-06T07:06:04.016Z,12.00
2018-09-06T07:08:32.106Z,11.73
2018-09-06T07:11:00.518Z,10.77
2018-09-06T07:13:28.609Z,9.47
2018-09-06T07:15:56.697Z,9.80
2018-09-06T07:18:25.501Z,11.40
2018-09-06T07:20:53.759Z,11.00
2018-09-06T07:23:22.439Z,11.57
2018-09-06T07:25:50.795Z,8.67
2018-09-06T07:28:19.503Z,9.67
2018-09-06T07:30:48.833Z,9.93
2018-09-06T07:33:17.239Z,9.40
2018-09-06T07:35:45.663Z,9.93
2018-09-06T07:38:14.026Z,9.33
2018-09-06T07:40:42.964Z,9.13
2018-09-06T07:43:11.643Z,12.88
2018-09-06T07:45:40.326Z,9.80
2018-09-06T07:48:09.016Z,10.03
2018-09-06T07:50:37.719Z,12.13
2018-09-06T07:53:06.387Z,11.53
2018-09-06T07:55:34.458Z,11.40
2018-09-06T07:58:03.102Z,11.00
2018-09-06T08:00:32.030Z,8.37
2018-09-06T08:03:00.519Z,8.53
2018-09-06T08:05:29.850Z,9.43
2018-09-06T08:07:58.527Z,8.80
2018-09-06T08:10:26.955Z,8.60
2018-09-06T08:12:55.668Z,8.60
2018-09-06T08:15:24.117Z,8.57
2018-09-06T08:17:52.778Z,8.60
2018-09-06T08:20:21.171Z,8.10
2018-09-06T08:22:49.559Z,8.07
2018-09-06T08:25:17.939Z,6.87
2018-09-06T08:27:46.306Z,7.60
2018-09-06T08:30:15.031Z,6.83
2018-09-06T08:32:43.979Z,7.70
2018-09-06T08:35:12.414Z,8.33
2018-09-06T08:37:41.096Z,6.63
2018-09-06T08:40:09.767Z,6.33
2018-09-06T08:42:38.642Z,8.40
2018-09-06T08:45:07.322Z,7.20
2018-09-06T08:47:35.695Z,5.77
2018-09-06T08:50:04.374Z,6.60
2018-09-06T08:52:32.872Z,6.90
2018-09-06T08:55:01.151Z,7.20
2018-09-06T08:57:30.053Z,6.90
2018-09-06T08:59:58.962Z,7.30
2018-09-06T09:02:27.377Z,6.50
2018-09-06T09:04:55.759Z,7.47
2018-09-06T09:07:23.857Z,6.43
2018-09-06T09:09:52.446Z,6.20
2018-09-06T09:12:20.848Z,6.50
2018-09-06T09:14:49.463Z,7.50
2018-09-06T09:17:17.846Z,7.30
2018-09-06T09:19:46.551Z,6.50
2018-09-06T09:22:15.128Z,6.93
2018-09-06T09:24:43.939Z,6.57
2018-09-06T09:27:13.559Z,6.10
2018-09-06T09:29:41.918Z,6.77
2018-09-06T09:32:11.006Z,6.47
2018-09-06T09:34:39.430Z,5.80
2018-09-06T09:37:07.843Z,5.77
2018-09-06T09:39:36.213Z,7.00
2018-09-06T09:42:04.588Z,6.17
2018-09-06T09:44:33.766Z,6.00
2018-09-06T09:49:30.099Z,5.03
2018-09-06T09:51:58.720Z,5.27
2018-09-06T09:54:27.566Z,5.97
2018-09-06T09:56:56.259Z,6.20
2018-09-06T09:59:24.694Z,6.93
2018-09-06T10:01:58.323Z,5.07
2018-09-06T10:04:32.578Z,6.23
2018-09-06T10:07:06.386Z,5.27
2018-09-06T10:09:34.824Z,6.57
2018-09-06T10:12:03.227Z,5.67
2018-09-06T10:14:31.867Z,5.20
2018-09-06T10:17:01.483Z,5.17
2018-09-06T10:19:30.523Z,4.13
2018-09-06T10:21:58.971Z,5.10
2018-09-06T10:24:27.639Z,4.20
2018-09-06T10:26:56.086Z,5.40
2018-09-06T10:29:24.457Z,5.17
2018-09-06T10:31:52.547Z,6.00
2018-09-06T10:34:20.919Z,5.47
2018-09-06T10:36:49.297Z,5.33
2018-09-06T10:39:18.051Z,5.20
2018-09-06T10:41:47.183Z,5.90
2018-09-06T10:44:15.590Z,5.17
2018-09-06T10:46:44.218Z,5.60
2018-09-06T10:49:12.575Z,4.57
2018-09-06T10:51:40.942Z,3.83
2018-09-06T10:54:09.624Z,4.30
2018-09-06T10:56:38.018Z,4.27
2018-09-06T10:59:06.479Z,3.57
2018-09-06T11:01:35.101Z,4.70
2018-09-06T11:04:03.742Z,4.80
2018-09-06T11:06:32.233Z,4.43
2018-09-06T11:09:00.642Z,5.30
2018-09-06T11:11:29.076Z,4.60
2018-09-06T11:13:57.730Z,5.10
2018-09-06T11:16:26.410Z,4.90
2018-09-06T11:18:54.810Z,5.13
2018-09-06T11:21:24.036Z,5.13
2018-09-06T11:23:52.638Z,4.73
2018-09-06T11:26:21.261Z,4.03
2018-09-06T11:28:49.596Z,4.83
2018-09-06T11:31:17.686Z,4.17
2018-09-06T11:33:46.062Z,4.27
2018-09-06T11:36:14.155Z,4.10
2018-09-06T11:38:43.110Z,4.70
2018-09-06T11:41:11.575Z,4.20
2018-09-06T11:43:40.158Z,4.40
2018-09-06T11:46:08.625Z,4.63
2018-09-06T11:48:36.939Z,4.37
2018-09-06T11:51:05.365Z,4.40
2018-09-06T11:53:33.468Z,5.33
2018-09-06T11:56:08.108Z,3.70
2018-09-06T11:58:36.567Z,3.40
2018-09-06T12:01:05.262Z,3.90
2018-09-06T12:03:33.687Z,3.33
2018-09-06T12:06:02.094Z,4.63
2018-09-06T12:08:31.043Z,3.53
2018-09-06T12:10:59.819Z,5.20
2018-09-06T12:13:28.529Z,5.53
2018-09-06T12:15:56.617Z,4.67
2018-09-06T12:18:25.023Z,6.07
2018-09-06T12:20:53.966Z,5.10
2018-09-06T12:23:22.317Z,5.17
2018-09-06T12:25:50.759Z,5.13
2018-09-06T12:28:19.971Z,4.13
2018-09-06T12:30:48.341Z,3.83
2018-09-06T12:33:16.872Z,5.37
2018-09-06T12:35:45.839Z,4.03
2018-09-06T12:38:14.546Z,5.83
2018-09-06T12:40:43.819Z,4.43
2018-09-06T12:43:12.631Z,5.47
2018-09-06T12:45:41.366Z,5.17
2018-09-06T12:48:09.764Z,4.70
2018-09-06T12:50:38.155Z,5.40
2018-09-06T12:53:06.586Z,4.87
2018-09-06T12:55:35.324Z,5.53
2018-09-06T12:58:03.706Z,5.43
2018-09-06T13:00:32.059Z,4.07
2018-09-06T13:03:00.162Z,4.97
2018-09-06T13:05:28.835Z,4.60
2018-09-06T13:07:57.737Z,3.93
2018-09-06T13:10:26.402Z,4.77
2018-09-06T13:12:54.802Z,4.73
2018-09-06T13:15:23.418Z,4.27
2018-09-06T13:17:51.841Z,3.50
2018-09-06T13:20:20.456Z,3.70
2018-09-06T13:22:49.322Z,4.23
2018-09-06T13:25:17.971Z,4.10
2018-09-06T13:27:46.918Z,4.27
2018-09-06T13:30:15.831Z,4.20
2018-09-06T13:32:44.170Z,4.07
2018-09-06T13:35:12.803Z,4.53
2018-09-06T13:37:41.175Z,4.40
2018-09-06T13:40:09.523Z,4.20
2018-09-06T13:42:38.125Z,4.40
2018-09-06T13:45:06.870Z,4.30
2018-09-06T13:47:35.234Z,4.70
2018-09-06T13:50:03.907Z,3.50
2018-09-06T13:52:32.275Z,4.60
2018-09-06T13:55:01.818Z,3.10
2018-09-06T13:57:30.473Z,3.90
2018-09-06T13:59:59.619Z,4.37
2018-09-06T14:02:28.194Z,3.57
2018-09-06T14:04:56.944Z,4.10
2018-09-06T14:07:25.866Z,4.00
2018-09-06T14:09:54.034Z,4.23
2018-09-06T14:12:22.399Z,4.93
2018-09-06T14:14:50.782Z,4.03
2018-09-06T14:17:19.998Z,5.03
2018-09-06T14:19:48.578Z,3.93
2018-09-06T14:22:16.979Z,4.50
2018-09-06T14:24:45.114Z,4.10
2018-09-06T14:27:13.616Z,4.23
2018-09-06T14:29:42.591Z,3.37
2018-09-06T14:32:11.507Z,5.00
2018-09-06T14:34:40.015Z,4.13
2018-09-06T14:37:08.610Z,3.40
2018-09-06T14:39:37.232Z,3.70
2018-09-06T14:42:05.751Z,3.57
2018-09-06T14:44:34.435Z,3.90
2018-09-06T14:47:03.319Z,4.57
2018-09-06T14:49:31.710Z,3.97
2018-09-06T14:52:00.590Z,4.40
2018-09-06T14:54:28.970Z,4.60
2018-09-06T14:56:57.394Z,3.87
2018-09-06T14:59:26.163Z,5.00
2018-09-06T15:01:54.565Z,4.00
2018-09-06T15:04:22.661Z,4.80
2018-09-06T15:06:51.031Z,5.07
2018-09-06T15:09:20.551Z,4.60
2018-09-06T15:11:48.904Z,4.37
2018-09-06T15:14:17.278Z,5.70
2018-09-06T15:16:45.995Z,4.90
2018-09-06T15:19:14.568Z,5.03
2018-09-06T15:21:42.912Z,5.23
2018-09-06T15:24:12.018Z,4.50
2018-09-06T15:26:42.467Z,4.40
2018-09-06T15:29:11.346Z,5.97
2018-09-06T15:31:39.731Z,6.07
2018-09-06T15:34:08.118Z,4.87
2018-09-06T15:36:36.554Z,4.53
2018-09-06T15:39:07.386Z,4.53
2018-09-06T15:41:35.834Z,5.27
2018-09-06T15:44:04.285Z,4.37
2018-09-06T15:46:32.679Z,5.03
2018-09-06T15:49:00.813Z,4.93
2018-09-06T15:51:29.411Z,4.30
2018-09-06T15:53:57.780Z,4.90
2018-09-06T15:56:26.156Z,4.90
2018-09-06T15:58:54.539Z,4.50
2018-09-06T16:01:22.926Z,3.97
2018-09-06T16:03:51.640Z,3.73
2018-09-06T16:06:20.030Z,4.13
2018-09-06T16:08:48.403Z,4.60
2018-09-06T16:11:17.335Z,3.40
2018-09-06T16:13:46.002Z,3.03
2018-09-06T16:16:15.040Z,4.30
2018-09-06T16:18:44.006Z,3.30
2018-09-06T16:21:12.937Z,3.73
2018-09-06T16:23:41.939Z,3.43
2018-09-06T16:26:10.969Z,3.90
2018-09-06T16:28:39.338Z,5.90
2018-09-06T16:31:07.434Z,6.27
2018-09-06T16:33:35.501Z,5.70
2018-09-06T16:36:03.891Z,6.20
2018-09-06T16:38:33.305Z,5.20
2018-09-06T16:41:02.515Z,7.00
2018-09-06T16:43:30.899Z,5.40
2018-09-06T16:45:59.545Z,7.23
2018-09-06T16:48:28.578Z,6.20
2018-09-06T16:50:57.074Z,4.93
2018-09-06T16:53:26.048Z,5.40
2018-09-06T16:55:55.274Z,4.00
2018-09-06T16:58:23.744Z,4.90
2018-09-06T17:00:53.653Z,4.30
2018-09-06T17:03:22.079Z,4.33
2018-09-06T17:05:51.050Z,3.90
2018-09-06T17:08:19.508Z,4.73
2018-09-06T17:10:48.166Z,4.67
2018-09-06T17:13:16.817Z,3.70
2018-09-06T17:15:46.220Z,4.67
2018-09-06T17:18:14.560Z,5.07
2018-09-06T17:20:43.955Z,6.03
2018-09-06T17:23:16.296Z,3.97
2018-09-06T17:25:44.990Z,4.17
2018-09-06T17:28:13.378Z,4.30
2018-09-06T17:30:42.007Z,4.60
2018-09-06T17:33:19.634Z,5.03
2018-09-06T17:35:48.855Z,4.43
2018-09-06T17:38:17.538Z,4.30
2018-09-06T17:40:46.258Z,4.37
2018-09-06T17:43:14.670Z,4.10
2018-09-06T17:45:43.939Z,6.17
2018-09-06T17:48:12.518Z,4.90
2018-09-06T17:50:40.919Z,5.07
2018-09-06T17:53:09.398Z,5.40
2018-09-06T17:55:38.323Z,4.67
2018-09-06T17:58:07.147Z,4.40
2018-09-06T18:00:41.051Z,4.60
2018-09-06T18:03:09.774Z,4.80
2018-09-06T18:05:38.227Z,4.50
2018-09-06T18:08:06.614Z,4.90
2018-09-06T18:10:35.275Z,4.50
2018-09-06T18:13:03.835Z,3.90
2018-09-06T18:15:32.481Z,3.63
2018-09-06T18:18:01.204Z,3.90
2018-09-06T18:20:31.189Z,4.00
2018-09-06T18:22:59.607Z,3.77
2018-09-06T18:25:28.355Z,4.83
2018-09-06T18:27:56.758Z,3.70
2018-09-06T18:30:25.239Z,4.20
2018-09-06T18:32:53.799Z,4.77
2018-09-06T18:35:22.261Z,3.97
2018-09-06T18:37:50.610Z,4.07
2018-09-06T18:40:19.686Z,4.00
2018-09-06T18:42:48.328Z,3.97
2018-09-06T18:45:16.982Z,3.83
2018-09-06T18:47:45.382Z,3.67
2018-09-06T18:50:14.100Z,4.10
2018-09-06T18:52:42.732Z,4.60
2018-09-06T18:55:11.198Z,4.77
2018-09-06T18:57:39.967Z,4.67
2018-09-06T19:00:08.343Z,5.00
2018-09-06T19:02:36.986Z,4.20
2018-09-06T19:05:10.312Z,4.80
2018-09-06T19:07:38.951Z,2.80
2018-09-06T19:10:07.411Z,3.87
2018-09-06T19:12:36.124Z,4.67
2018-09-06T19:15:04.531Z,3.43
2018-09-06T19:17:32.914Z,4.83
2018-09-06T19:20:01.658Z,4.20
2018-09-06T19:22:30.402Z,4.67
2018-09-06T19:24:59.301Z,4.83
2018-09-06T19:27:27.851Z,4.97
2018-09-06T19:29:56.788Z,4.67
2018-09-06T19:32:25.226Z,4.53
2018-09-06T19:34:55.484Z,4.57
2018-09-06T19:37:24.182Z,3.70
2018-09-06T19:39:53.179Z,4.70
2018-09-06T19:42:21.658Z,5.40
2018-09-06T19:44:50.923Z,4.50
2018-09-06T19:47:20.224Z,5.43
2018-09-06T19:49:48.699Z,4.60
2018-09-06T19:52:17.110Z,6.53
2018-09-06T19:54:45.718Z,6.70
2018-09-06T19:57:14.140Z,4.90
2018-09-06T19:59:42.629Z,6.30
2018-09-06T20:02:12.208Z,4.47
2018-09-06T20:04:40.822Z,5.37
2018-09-06T20:07:09.446Z,3.80
2018-09-06T20:09:38.515Z,5.23
2018-09-06T20:12:07.184Z,5.27
2018-09-06T20:14:35.790Z,4.90
2018-09-06T20:17:04.759Z,5.33
2018-09-06T20:19:33.314Z,6.10
2018-09-06T20:22:01.726Z,5.70
2018-09-06T20:24:30.403Z,7.30
2018-09-06T20:26:58.894Z,5.47
2018-09-06T20:29:27.327Z,5.70
2018-09-06T20:31:56.279Z,5.67
2018-09-06T20:34:24.691Z,6.03
2018-09-06T20:36:53.579Z,5.50
2018-09-06T20:39:21.944Z,5.50
2018-09-06T20:41:51.574Z,6.07
2018-09-06T20:44:19.952Z,4.67
2018-09-06T20:46:48.378Z,5.70
2018-09-06T20:49:16.862Z,5.47
2018-09-06T20:51:45.303Z,6.77
2018-09-06T20:54:14.124Z,5.30
2018-09-06T20:56:42.556Z,5.60
2018-09-06T20:59:11.077Z,6.37
2018-09-06T21:01:39.547Z,5.37
2018-09-06T21:04:07.947Z,6.00
2018-09-06T21:06:36.987Z,4.70
2018-09-06T21:09:06.755Z,5.20
2018-09-06T21:11:35.212Z,5.40
2018-09-06T21:14:03.626Z,6.10
2018-09-06T21:16:32.150Z,5.70
2018-09-06T21:19:00.560Z,6.67
2018-09-06T21:21:28.980Z,4.70
2018-09-06T21:23:57.430Z,7.00
2018-09-06T21:26:26.406Z,4.80
2018-09-06T21:28:55.054Z,5.20
2018-09-06T21:31:24.052Z,5.67
2018-09-06T21:33:52.431Z,5.77
2018-09-06T21:36:21.098Z,6.73
2018-09-06T21:38:49.470Z,6.73
2018-09-06T21:41:17.877Z,7.53
2018-09-06T21:43:46.539Z,6.40
2018-09-06T21:46:15.262Z,6.10
2018-09-06T21:48:44.194Z,7.60
2018-09-06T21:51:12.921Z,7.83
2018-09-06T21:53:41.619Z,7.37
2018-09-06T21:56:09.998Z,7.40
2018-09-06T21:58:38.430Z,7.03
2018-09-06T22:01:07.082Z,8.27
2018-09-06T22:04:08.822Z,8.17
2018-09-06T22:06:38.072Z,7.40
2018-09-06T22:09:09.547Z,11.50
2018-09-06T22:11:38.962Z,9.60
2018-09-06T22:14:07.506Z,9.27
2018-09-06T22:16:36.159Z,8.10
2018-09-06T22:19:05.176Z,6.53
2018-09-06T22:21:33.587Z,7.30
2018-09-06T22:24:02.334Z,8.20
2018-09-06T22:26:31.011Z,7.90
2018-09-06T22:28:59.635Z,8.43
2018-09-06T22:31:28.035Z,7.57
2018-09-06T22:33:56.778Z,6.87
2018-09-06T22:36:25.760Z,6.70
2018-09-06T22:38:54.738Z,7.97
2018-09-06T22:41:23.418Z,10.53
2018-09-06T22:43:51.786Z,8.63
2018-09-06T22:46:20.183Z,10.20
2018-09-06T22:48:48.661Z,8.43
2018-09-06T22:51:17.295Z,8.00
2018-09-06T22:53:45.735Z,9.50
2018-09-06T22:56:14.463Z,8.77
2018-09-06T22:58:42.811Z,8.23
2018-09-06T23:01:11.634Z,8.23
2018-09-06T23:03:42.254Z,9.57
2018-09-06T23:06:10.685Z,9.67
2018-09-06T23:08:39.110Z,10.63
2018-09-06T23:11:08.159Z,8.43
2018-09-06T23:13:37.004Z,9.80
2018-09-06T23:16:05.673Z,8.10
2018-09-06T23:18:34.318Z,7.33
2018-09-06T23:21:02.942Z,8.70
2018-09-06T23:23:31.530Z,9.93
2018-09-06T23:25:59.886Z,8.20
2018-09-06T23:28:28.518Z,8.13
2018-09-06T23:30:57.186Z,8.60
2018-09-06T23:33:25.951Z,9.47
2018-09-06T23:35:54.334Z,8.17
2018-09-06T23:38:23.255Z,7.73
2018-09-06T23:40:54.638Z,8.60
2018-09-06T23:43:25.219Z,9.70
2018-09-06T23:45:55.298Z,8.00
2018-09-06T23:48:25.345Z,8.30
2018-09-06T23:50:54.614Z,9.80
2018-09-06T23:53:23.486Z,8.47
2018-09-06T23:55:52.177Z,9.57
2018-09-06T23:58:20.535Z,9.00
